sensor_id;sensor_type;location;lat;lon;timestamp;P1;durP1;ratioP1;P2;durP2;ratioP2
31730;SDS011;18310;55.586;12.286;2023-09-07T00:01:16;10.82;;;4.90;;
31730;SDS011;18310;55.586;12.286;2023-09-07T00:04:20;6.77;;;4.80;;
31730;SDS011;18310;55.586;12.286;2023-09-07T00:07:24;7.05;;;4.30;;
31730;SDS011;18310;55.586;12.286;2023-09-07T00:10:27;6.38;;;4.40;;
31730;SDS011;18310;55.586;12.286;2023-09-07T00:13:32;8.55;;;4.40;;
31730;SDS011;18310;55.586;12.286;2023-09-07T00:16:35;11.40;;;4.97;;
31730;SDS011;18310;55.586;12.286;2023-09-07T00:22:43;8.40;;;4.45;;
31730;SDS011;18310;55.586;12.286;2023-09-07T00:28:51;8.20;;;4.35;;
31730;SDS011;18310;55.586;12.286;2023-09-07T00:31:54;8.15;;;4.30;;
31730;SDS011;18310;55.586;12.286;2023-09-07T00:34:57;7.15;;;4.25;;
31730;SDS011;18310;55.586;12.286;2023-09-07T00:38:00;7.47;;;4.55;;
31730;SDS011;18310;55.586;12.286;2023-09-07T00:41:04;8.33;;;4.07;;
31730;SDS011;18310;55.586;12.286;2023-09-07T00:44:08;6.25;;;3.97;;
31730;SDS011;18310;55.586;12.286;2023-09-07T00:47:11;6.43;;;3.83;;
31730;SDS011;18310;55.586;12.286;2023-09-07T00:50:15;7.38;;;4.15;;
31730;SDS011;18310;55.586;12.286;2023-09-07T00:53:18;6.63;;;4.55;;
31730;SDS011;18310;55.586;12.286;2023-09-07T00:56:21;6.28;;;4.13;;
31730;SDS011;18310;55.586;12.286;2023-09-07T00:59:26;9.50;;;4.60;;
31730;SDS011;18310;55.586;12.286;2023-09-07T01:02:29;9.02;;;4.40;;
31730;SDS011;18310;55.586;12.286;2023-09-07T01:05:34;7.17;;;4.00;;
31730;SDS011;18310;55.586;12.286;2023-09-07T01:08:44;6.75;;;4.22;;
31730;SDS011;18310;55.586;12.286;2023-09-07T01:11:51;7.15;;;3.58;;
31730;SDS011;18310;55.586;12.286;2023-09-07T01:14:55;10.35;;;4.47;;
31730;SDS011;18310;55.586;12.286;2023-09-07T01:18:00;6.70;;;3.40;;
31730;SDS011;18310;55.586;12.286;2023-09-07T01:21:22;8.80;;;4.38;;
31730;SDS011;18310;55.586;12.286;2023-09-07T01:24:27;6.22;;;4.00;;
31730;SDS011;18310;55.586;12.286;2023-09-07T01:27:31;7.50;;;4.10;;
31730;SDS011;18310;55.586;12.286;2023-09-07T01:30:34;8.00;;;4.28;;
31730;SDS011;18310;55.586;12.286;2023-09-07T01:33:38;6.32;;;4.18;;
31730;SDS011;18310;55.586;12.286;2023-09-07T01:36:41;6.87;;;4.03;;
31730;SDS011;18310;55.586;12.286;2023-09-07T01:39:47;7.22;;;3.95;;
31730;SDS011;18310;55.586;12.286;2023-09-07T01:42:50;5.90;;;3.70;;
31730;SDS011;18310;55.586;12.286;2023-09-07T01:45:54;5.60;;;3.97;;
31730;SDS011;18310;55.586;12.286;2023-09-07T01:48:57;7.13;;;4.05;;
31730;SDS011;18310;55.586;12.286;2023-09-07T01:52:01;5.40;;;3.70;;
31730;SDS011;18310;55.586;12.286;2023-09-07T01:55:06;7.07;;;3.90;;
31730;SDS011;18310;55.586;12.286;2023-09-07T01:58:09;6.82;;;3.78;;
31730;SDS011;18310;55.586;12.286;2023-09-07T02:01:22;7.90;;;3.45;;
31730;SDS011;18310;55.586;12.286;2023-09-07T02:04:26;9.40;;;3.95;;
31730;SDS011;18310;55.586;12.286;2023-09-07T02:07:29;8.93;;;3.92;;
31730;SDS011;18310;55.586;12.286;2023-09-07T02:10:34;5.77;;;3.90;;
31730;SDS011;18310;55.586;12.286;2023-09-07T02:13:37;7.65;;;3.42;;
31730;SDS011;18310;55.586;12.286;2023-09-07T02:16:40;5.03;;;3.40;;
31730;SDS011;18310;55.586;12.286;2023-09-07T02:19:44;7.63;;;3.90;;
31730;SDS011;18310;55.586;12.286;2023-09-07T02:22:47;6.25;;;4.18;;
31730;SDS011;18310;55.586;12.286;2023-09-07T02:25:53;6.95;;;3.83;;
31730;SDS011;18310;55.586;12.286;2023-09-07T02:28:57;6.28;;;3.92;;
31730;SDS011;18310;55.586;12.286;2023-09-07T02:32:00;5.25;;;3.30;;
31730;SDS011;18310;55.586;12.286;2023-09-07T02:35:04;6.50;;;4.13;;
31730;SDS011;18310;55.586;12.286;2023-09-07T02:41:12;7.88;;;4.10;;
31730;SDS011;18310;55.586;12.286;2023-09-07T02:44:15;6.75;;;4.15;;
31730;SDS011;18310;55.586;12.286;2023-09-07T02:47:19;6.50;;;4.18;;
31730;SDS011;18310;55.586;12.286;2023-09-07T02:50:22;9.65;;;5.00;;
31730;SDS011;18310;55.586;12.286;2023-09-07T02:53:25;6.93;;;4.23;;
31730;SDS011;18310;55.586;12.286;2023-09-07T02:56:30;7.00;;;4.00;;
31730;SDS011;18310;55.586;12.286;2023-09-07T02:59:33;8.93;;;3.92;;
31730;SDS011;18310;55.586;12.286;2023-09-07T03:02:36;6.97;;;4.70;;
31730;SDS011;18310;55.586;12.286;2023-09-07T03:05:39;6.75;;;4.30;;
31730;SDS011;18310;55.586;12.286;2023-09-07T03:08:43;6.28;;;4.15;;
31730;SDS011;18310;55.586;12.286;2023-09-07T03:11:48;7.60;;;4.20;;
31730;SDS011;18310;55.586;12.286;2023-09-07T03:14:51;5.63;;;4.47;;
31730;SDS011;18310;55.586;12.286;2023-09-07T03:17:55;8.27;;;4.05;;
31730;SDS011;18310;55.586;12.286;2023-09-07T03:20:59;7.25;;;4.47;;
31730;SDS011;18310;55.586;12.286;2023-09-07T03:24:04;5.13;;;3.80;;
31730;SDS011;18310;55.586;12.286;2023-09-07T03:30:13;8.63;;;4.68;;
31730;SDS011;18310;55.586;12.286;2023-09-07T03:33:17;7.43;;;4.38;;
31730;SDS011;18310;55.586;12.286;2023-09-07T03:36:20;6.47;;;4.13;;
31730;SDS011;18310;55.586;12.286;2023-09-07T03:39:25;6.05;;;4.13;;
31730;SDS011;18310;55.586;12.286;2023-09-07T03:42:29;8.13;;;4.20;;
31730;SDS011;18310;55.586;12.286;2023-09-07T03:45:34;8.00;;;3.75;;
31730;SDS011;18310;55.586;12.286;2023-09-07T03:48:37;7.68;;;3.70;;
31730;SDS011;18310;55.586;12.286;2023-09-07T03:51:42;5.95;;;3.50;;
31730;SDS011;18310;55.586;12.286;2023-09-07T03:54:45;5.15;;;3.63;;
31730;SDS011;18310;55.586;12.286;2023-09-07T03:57:50;6.60;;;4.30;;
31730;SDS011;18310;55.586;12.286;2023-09-07T04:00:53;6.88;;;4.07;;
31730;SDS011;18310;55.586;12.286;2023-09-07T04:03:57;8.67;;;3.67;;
31730;SDS011;18310;55.586;12.286;2023-09-07T04:07:00;7.67;;;3.67;;
31730;SDS011;18310;55.586;12.286;2023-09-07T04:10:04;7.13;;;4.03;;
31730;SDS011;18310;55.586;12.286;2023-09-07T04:16:12;9.13;;;3.97;;
31730;SDS011;18310;55.586;12.286;2023-09-07T04:19:15;5.25;;;3.35;;
31730;SDS011;18310;55.586;12.286;2023-09-07T04:22:18;6.07;;;4.32;;
31730;SDS011;18310;55.586;12.286;2023-09-07T04:25:21;6.50;;;4.33;;
31730;SDS011;18310;55.586;12.286;2023-09-07T04:28:25;6.97;;;3.77;;
31730;SDS011;18310;55.586;12.286;2023-09-07T04:31:29;6.53;;;4.07;;
31730;SDS011;18310;55.586;12.286;2023-09-07T04:37:36;6.97;;;4.18;;
31730;SDS011;18310;55.586;12.286;2023-09-07T04:40:39;8.13;;;3.90;;
31730;SDS011;18310;55.586;12.286;2023-09-07T04:43:44;5.72;;;3.75;;
31730;SDS011;18310;55.586;12.286;2023-09-07T04:46:47;6.65;;;3.35;;
31730;SDS011;18310;55.586;12.286;2023-09-07T04:49:51;9.45;;;4.28;;
31730;SDS011;18310;55.586;12.286;2023-09-07T04:52:55;6.13;;;3.42;;
31730;SDS011;18310;55.586;12.286;2023-09-07T04:55:58;9.63;;;4.00;;
31730;SDS011;18310;55.586;12.286;2023-09-07T04:59:02;7.30;;;3.60;;
31730;SDS011;18310;55.586;12.286;2023-09-07T05:02:06;6.38;;;4.00;;
31730;SDS011;18310;55.586;12.286;2023-09-07T05:05:09;9.05;;;4.57;;
31730;SDS011;18310;55.586;12.286;2023-09-07T05:11:16;6.90;;;3.70;;
31730;SDS011;18310;55.586;12.286;2023-09-07T05:14:20;5.37;;;3.13;;
31730;SDS011;18310;55.586;12.286;2023-09-07T05:17:24;5.20;;;3.78;;
31730;SDS011;18310;55.586;12.286;2023-09-07T05:20:29;5.97;;;3.77;;
31730;SDS011;18310;55.586;12.286;2023-09-07T05:23:32;5.95;;;4.18;;
31730;SDS011;18310;55.586;12.286;2023-09-07T05:26:36;14.13;;;3.97;;
31730;SDS011;18310;55.586;12.286;2023-09-07T05:29:41;7.17;;;4.23;;
31730;SDS011;18310;55.586;12.286;2023-09-07T05:32:45;5.88;;;4.13;;
31730;SDS011;18310;55.586;12.286;2023-09-07T05:35:52;6.40;;;3.83;;
31730;SDS011;18310;55.586;12.286;2023-09-07T05:38:55;6.83;;;3.97;;
31730;SDS011;18310;55.586;12.286;2023-09-07T05:41:58;4.53;;;3.30;;
31730;SDS011;18310;55.586;12.286;2023-09-07T05:45:03;7.90;;;3.97;;
31730;SDS011;18310;55.586;12.286;2023-09-07T05:48:07;5.53;;;3.85;;
31730;SDS011;18310;55.586;12.286;2023-09-07T05:51:11;5.68;;;3.95;;
31730;SDS011;18310;55.586;12.286;2023-09-07T05:54:14;6.63;;;3.93;;
31730;SDS011;18310;55.586;12.286;2023-09-07T05:57:18;8.13;;;4.70;;
31730;SDS011;18310;55.586;12.286;2023-09-07T06:00:22;7.03;;;3.53;;
31730;SDS011;18310;55.586;12.286;2023-09-07T06:03:26;13.15;;;4.15;;
31730;SDS011;18310;55.586;12.286;2023-09-07T06:06:29;4.97;;;3.42;;
31730;SDS011;18310;55.586;12.286;2023-09-07T06:09:33;7.53;;;3.55;;
31730;SDS011;18310;55.586;12.286;2023-09-07T06:12:36;6.55;;;3.92;;
31730;SDS011;18310;55.586;12.286;2023-09-07T06:15:41;7.03;;;3.65;;
31730;SDS011;18310;55.586;12.286;2023-09-07T06:18:44;6.82;;;4.10;;
31730;SDS011;18310;55.586;12.286;2023-09-07T06:21:48;5.78;;;3.63;;
31730;SDS011;18310;55.586;12.286;2023-09-07T06:24:51;6.78;;;3.35;;
31730;SDS011;18310;55.586;12.286;2023-09-07T06:27:55;5.65;;;3.63;;
31730;SDS011;18310;55.586;12.286;2023-09-07T06:30:59;4.88;;;3.47;;
31730;SDS011;18310;55.586;12.286;2023-09-07T06:34:02;7.28;;;3.90;;
31730;SDS011;18310;55.586;12.286;2023-09-07T06:37:05;6.33;;;3.60;;
31730;SDS011;18310;55.586;12.286;2023-09-07T06:40:09;5.05;;;3.35;;
31730;SDS011;18310;55.586;12.286;2023-09-07T06:43:35;5.40;;;3.78;;
31730;SDS011;18310;55.586;12.286;2023-09-07T06:46:38;5.50;;;3.88;;
31730;SDS011;18310;55.586;12.286;2023-09-07T06:49:42;7.47;;;3.90;;
31730;SDS011;18310;55.586;12.286;2023-09-07T06:52:45;6.93;;;3.78;;
31730;SDS011;18310;55.586;12.286;2023-09-07T06:55:49;7.88;;;4.30;;
31730;SDS011;18310;55.586;12.286;2023-09-07T06:59:01;6.38;;;3.55;;
31730;SDS011;18310;55.586;12.286;2023-09-07T07:02:04;5.57;;;3.10;;
31730;SDS011;18310;55.586;12.286;2023-09-07T07:05:08;5.57;;;3.10;;
31730;SDS011;18310;55.586;12.286;2023-09-07T07:08:11;5.73;;;3.50;;
31730;SDS011;18310;55.586;12.286;2023-09-07T07:11:14;4.73;;;3.37;;
31730;SDS011;18310;55.586;12.286;2023-09-07T07:14:19;5.60;;;3.15;;
31730;SDS011;18310;55.586;12.286;2023-09-07T07:17:45;4.30;;;3.20;;
31730;SDS011;18310;55.586;12.286;2023-09-07T07:20:52;7.07;;;3.25;;
31730;SDS011;18310;55.586;12.286;2023-09-07T07:23:55;5.55;;;3.72;;
31730;SDS011;18310;55.586;12.286;2023-09-07T07:26:58;4.17;;;2.83;;
31730;SDS011;18310;55.586;12.286;2023-09-07T07:30:02;6.23;;;3.17;;
31730;SDS011;18310;55.586;12.286;2023-09-07T07:33:07;4.20;;;2.78;;
31730;SDS011;18310;55.586;12.286;2023-09-07T07:36:10;5.97;;;3.15;;
31730;SDS011;18310;55.586;12.286;2023-09-07T07:39:13;4.73;;;3.10;;
31730;SDS011;18310;55.586;12.286;2023-09-07T07:42:17;6.32;;;3.60;;
31730;SDS011;18310;55.586;12.286;2023-09-07T07:45:22;8.65;;;3.80;;
31730;SDS011;18310;55.586;12.286;2023-09-07T07:48:27;5.73;;;3.30;;
31730;SDS011;18310;55.586;12.286;2023-09-07T07:51:31;4.38;;;2.70;;
31730;SDS011;18310;55.586;12.286;2023-09-07T07:54:34;6.40;;;2.57;;
31730;SDS011;18310;55.586;12.286;2023-09-07T07:57:38;8.98;;;3.17;;
31730;SDS011;18310;55.586;12.286;2023-09-07T08:00:41;4.85;;;2.90;;
31730;SDS011;18310;55.586;12.286;2023-09-07T08:03:51;4.25;;;2.60;;
31730;SDS011;18310;55.586;12.286;2023-09-07T08:06:55;4.65;;;2.67;;
31730;SDS011;18310;55.586;12.286;2023-09-07T08:10:01;4.63;;;3.08;;
31730;SDS011;18310;55.586;12.286;2023-09-07T08:13:05;4.72;;;2.92;;
31730;SDS011;18310;55.586;12.286;2023-09-07T08:16:09;6.33;;;3.20;;
31730;SDS011;18310;55.586;12.286;2023-09-07T08:19:16;7.90;;;3.05;;
31730;SDS011;18310;55.586;12.286;2023-09-07T08:22:20;6.45;;;2.90;;
31730;SDS011;18310;55.586;12.286;2023-09-07T08:25:23;6.88;;;3.25;;
31730;SDS011;18310;55.586;12.286;2023-09-07T08:28:28;4.55;;;3.25;;
31730;SDS011;18310;55.586;12.286;2023-09-07T08:31:58;6.22;;;3.25;;
31730;SDS011;18310;55.586;12.286;2023-09-07T08:35:03;6.25;;;3.13;;
31730;SDS011;18310;55.586;12.286;2023-09-07T08:38:09;8.25;;;2.90;;
31730;SDS011;18310;55.586;12.286;2023-09-07T08:41:13;5.70;;;3.35;;
31730;SDS011;18310;55.586;12.286;2023-09-07T08:44:17;3.95;;;2.75;;
31730;SDS011;18310;55.586;12.286;2023-09-07T08:47:22;3.88;;;2.55;;
31730;SDS011;18310;55.586;12.286;2023-09-07T08:50:26;3.70;;;2.42;;
31730;SDS011;18310;55.586;12.286;2023-09-07T08:53:32;7.35;;;3.08;;
31730;SDS011;18310;55.586;12.286;2023-09-07T08:56:36;4.00;;;2.70;;
31730;SDS011;18310;55.586;12.286;2023-09-07T09:02:44;5.25;;;2.60;;
31730;SDS011;18310;55.586;12.286;2023-09-07T09:05:57;5.07;;;3.15;;
31730;SDS011;18310;55.586;12.286;2023-09-07T09:09:00;4.43;;;2.50;;
31730;SDS011;18310;55.586;12.286;2023-09-07T09:12:07;5.90;;;2.90;;
31730;SDS011;18310;55.586;12.286;2023-09-07T09:15:11;6.80;;;2.97;;
31730;SDS011;18310;55.586;12.286;2023-09-07T09:18:15;6.53;;;3.10;;
31730;SDS011;18310;55.586;12.286;2023-09-07T09:21:18;6.35;;;2.72;;
31730;SDS011;18310;55.586;12.286;2023-09-07T09:24:22;7.78;;;2.72;;
31730;SDS011;18310;55.586;12.286;2023-09-07T09:27:26;6.93;;;3.15;;
31730;SDS011;18310;55.586;12.286;2023-09-07T09:30:29;8.38;;;3.15;;
31730;SDS011;18310;55.586;12.286;2023-09-07T09:33:33;5.20;;;2.83;;
31730;SDS011;18310;55.586;12.286;2023-09-07T09:36:36;8.30;;;2.92;;
31730;SDS011;18310;55.586;12.286;2023-09-07T09:39:42;3.92;;;3.00;;
31730;SDS011;18310;55.586;12.286;2023-09-07T09:42:46;6.00;;;3.17;;
31730;SDS011;18310;55.586;12.286;2023-09-07T09:45:50;6.00;;;2.90;;
31730;SDS011;18310;55.586;12.286;2023-09-07T09:48:56;6.13;;;3.08;;
31730;SDS011;18310;55.586;12.286;2023-09-07T09:52:22;7.00;;;2.90;;
31730;SDS011;18310;55.586;12.286;2023-09-07T09:55:27;5.00;;;3.03;;
31730;SDS011;18310;55.586;12.286;2023-09-07T09:58:33;4.95;;;2.70;;
31730;SDS011;18310;55.586;12.286;2023-09-07T10:01:40;6.47;;;2.67;;
31730;SDS011;18310;55.586;12.286;2023-09-07T10:04:46;7.07;;;2.60;;
31730;SDS011;18310;55.586;12.286;2023-09-07T10:07:51;4.57;;;3.05;;
31730;SDS011;18310;55.586;12.286;2023-09-07T10:10:55;5.38;;;2.67;;
31730;SDS011;18310;55.586;12.286;2023-09-07T10:14:00;9.98;;;3.67;;
31730;SDS011;18310;55.586;12.286;2023-09-07T10:17:05;4.75;;;2.90;;
31730;SDS011;18310;55.586;12.286;2023-09-07T10:20:10;7.20;;;2.90;;
31730;SDS011;18310;55.586;12.286;2023-09-07T10:23:15;6.72;;;3.53;;
31730;SDS011;18310;55.586;12.286;2023-09-07T10:26:18;5.82;;;3.50;;
31730;SDS011;18310;55.586;12.286;2023-09-07T10:29:24;9.05;;;3.28;;
31730;SDS011;18310;55.586;12.286;2023-09-07T10:32:37;4.88;;;3.00;;
31730;SDS011;18310;55.586;12.286;2023-09-07T10:35:42;7.70;;;3.72;;
31730;SDS011;18310;55.586;12.286;2023-09-07T10:38:47;6.40;;;3.30;;
31730;SDS011;18310;55.586;12.286;2023-09-07T10:41:50;4.95;;;3.40;;
31730;SDS011;18310;55.586;12.286;2023-09-07T10:45:16;5.15;;;3.15;;
31730;SDS011;18310;55.586;12.286;2023-09-07T10:48:19;10.00;;;3.92;;
31730;SDS011;18310;55.586;12.286;2023-09-07T10:51:22;5.65;;;2.97;;
31730;SDS011;18310;55.586;12.286;2023-09-07T10:58:12;7.80;;;3.28;;
31730;SDS011;18310;55.586;12.286;2023-09-07T11:01:31;5.22;;;3.17;;
31730;SDS011;18310;55.586;12.286;2023-09-07T11:04:35;9.75;;;3.35;;
31730;SDS011;18310;55.586;12.286;2023-09-07T11:07:38;5.30;;;3.50;;
31730;SDS011;18310;55.586;12.286;2023-09-07T11:10:45;5.25;;;3.63;;
31730;SDS011;18310;55.586;12.286;2023-09-07T11:13:48;5.80;;;3.55;;
31730;SDS011;18310;55.586;12.286;2023-09-07T11:16:56;7.03;;;3.75;;
31730;SDS011;18310;55.586;12.286;2023-09-07T11:20:02;6.32;;;3.67;;
31730;SDS011;18310;55.586;12.286;2023-09-07T11:23:07;6.13;;;3.72;;
31730;SDS011;18310;55.586;12.286;2023-09-07T11:26:11;7.00;;;3.42;;
31730;SDS011;18310;55.586;12.286;2023-09-07T11:29:14;5.22;;;3.45;;
31730;SDS011;18310;55.586;12.286;2023-09-07T11:32:19;7.47;;;3.50;;
31730;SDS011;18310;55.586;12.286;2023-09-07T11:35:24;6.75;;;3.50;;
31730;SDS011;18310;55.586;12.286;2023-09-07T11:38:28;8.07;;;3.78;;
31730;SDS011;18310;55.586;12.286;2023-09-07T11:41:32;9.00;;;4.00;;
31730;SDS011;18310;55.586;12.286;2023-09-07T11:44:35;7.17;;;3.70;;
31730;SDS011;18310;55.586;12.286;2023-09-07T11:47:40;9.00;;;3.97;;
31730;SDS011;18310;55.586;12.286;2023-09-07T11:50:43;7.60;;;4.75;;
31730;SDS011;18310;55.586;12.286;2023-09-07T11:53:46;8.53;;;5.57;;
31730;SDS011;18310;55.586;12.286;2023-09-07T11:56:50;9.55;;;5.20;;
31730;SDS011;18310;55.586;12.286;2023-09-07T11:59:54;8.57;;;4.93;;
31730;SDS011;18310;55.586;12.286;2023-09-07T12:03:01;6.88;;;5.50;;
31730;SDS011;18310;55.586;12.286;2023-09-07T12:06:05;7.22;;;4.88;;
31730;SDS011;18310;55.586;12.286;2023-09-07T12:09:08;8.30;;;6.13;;
31730;SDS011;18310;55.586;12.286;2023-09-07T12:12:11;6.35;;;4.65;;
31730;SDS011;18310;55.586;12.286;2023-09-07T12:15:15;6.77;;;5.17;;
31730;SDS011;18310;55.586;12.286;2023-09-07T12:18:19;8.48;;;5.68;;
31730;SDS011;18310;55.586;12.286;2023-09-07T12:21:23;8.90;;;5.18;;
31730;SDS011;18310;55.586;12.286;2023-09-07T12:24:26;10.93;;;5.63;;
31730;SDS011;18310;55.586;12.286;2023-09-07T12:27:29;7.25;;;5.53;;
31730;SDS011;18310;55.586;12.286;2023-09-07T12:30:52;7.15;;;5.45;;
31730;SDS011;18310;55.586;12.286;2023-09-07T12:33:57;9.20;;;5.20;;
31730;SDS011;18310;55.586;12.286;2023-09-07T12:37:01;8.63;;;5.05;;
31730;SDS011;18310;55.586;12.286;2023-09-07T12:40:06;8.57;;;5.68;;
31730;SDS011;18310;55.586;12.286;2023-09-07T12:43:13;9.80;;;6.22;;
31730;SDS011;18310;55.586;12.286;2023-09-07T12:46:16;11.70;;;5.93;;
31730;SDS011;18310;55.586;12.286;2023-09-07T12:49:21;8.23;;;5.35;;
31730;SDS011;18310;55.586;12.286;2023-09-07T12:52:25;6.47;;;5.18;;
31730;SDS011;18310;55.586;12.286;2023-09-07T12:55:28;10.68;;;6.13;;
31730;SDS011;18310;55.586;12.286;2023-09-07T12:58:32;8.20;;;5.43;;
31730;SDS011;18310;55.586;12.286;2023-09-07T13:01:35;6.97;;;5.30;;
31730;SDS011;18310;55.586;12.286;2023-09-07T13:04:39;9.50;;;6.17;;
31730;SDS011;18310;55.586;12.286;2023-09-07T13:07:42;9.65;;;6.50;;
31730;SDS011;18310;55.586;12.286;2023-09-07T13:10:46;9.27;;;6.57;;
31730;SDS011;18310;55.586;12.286;2023-09-07T13:13:49;8.67;;;6.23;;
31730;SDS011;18310;55.586;12.286;2023-09-07T13:16:53;10.05;;;6.50;;
31730;SDS011;18310;55.586;12.286;2023-09-07T13:19:58;12.95;;;6.78;;
31730;SDS011;18310;55.586;12.286;2023-09-07T13:23:02;10.43;;;6.32;;
31730;SDS011;18310;55.586;12.286;2023-09-07T13:26:26;8.13;;;5.80;;
31730;SDS011;18310;55.586;12.286;2023-09-07T13:29:29;9.27;;;6.32;;
31730;SDS011;18310;55.586;12.286;2023-09-07T13:32:33;6.88;;;4.97;;
31730;SDS011;18310;55.586;12.286;2023-09-07T13:35:36;7.57;;;5.28;;
31730;SDS011;18310;55.586;12.286;2023-09-07T13:38:41;13.40;;;5.78;;
31730;SDS011;18310;55.586;12.286;2023-09-07T13:41:46;12.07;;;5.97;;
31730;SDS011;18310;55.586;12.286;2023-09-07T13:44:50;6.70;;;5.10;;
31730;SDS011;18310;55.586;12.286;2023-09-07T13:47:53;10.97;;;5.43;;
31730;SDS011;18310;55.586;12.286;2023-09-07T13:50:56;6.90;;;4.78;;
31730;SDS011;18310;55.586;12.286;2023-09-07T13:53:59;6.37;;;4.73;;
31730;SDS011;18310;55.586;12.286;2023-09-07T13:57:04;5.97;;;4.47;;
31730;SDS011;18310;55.586;12.286;2023-09-07T14:00:08;7.20;;;4.28;;
31730;SDS011;18310;55.586;12.286;2023-09-07T14:03:11;8.98;;;5.80;;
31730;SDS011;18310;55.586;12.286;2023-09-07T14:06:14;9.27;;;5.20;;
31730;SDS011;18310;55.586;12.286;2023-09-07T14:09:19;7.10;;;5.03;;
31730;SDS011;18310;55.586;12.286;2023-09-07T14:12:26;8.50;;;5.15;;
31730;SDS011;18310;55.586;12.286;2023-09-07T14:15:29;7.72;;;5.20;;
31730;SDS011;18310;55.586;12.286;2023-09-07T14:18:33;7.38;;;5.10;;
31730;SDS011;18310;55.586;12.286;2023-09-07T14:21:36;10.83;;;5.20;;
31730;SDS011;18310;55.586;12.286;2023-09-07T14:24:39;8.23;;;5.67;;
31730;SDS011;18310;55.586;12.286;2023-09-07T14:27:44;6.77;;;5.23;;
31730;SDS011;18310;55.586;12.286;2023-09-07T14:30:48;8.38;;;5.32;;
31730;SDS011;18310;55.586;12.286;2023-09-07T14:34:12;10.15;;;5.70;;
31730;SDS011;18310;55.586;12.286;2023-09-07T14:37:16;8.55;;;5.20;;
31730;SDS011;18310;55.586;12.286;2023-09-07T14:40:19;8.67;;;5.37;;
31730;SDS011;18310;55.586;12.286;2023-09-07T14:43:24;11.80;;;6.32;;
31730;SDS011;18310;55.586;12.286;2023-09-07T14:46:27;10.00;;;5.90;;
31730;SDS011;18310;55.586;12.286;2023-09-07T14:49:32;12.05;;;5.40;;
31730;SDS011;18310;55.586;12.286;2023-09-07T14:52:35;9.95;;;5.18;;
31730;SDS011;18310;55.586;12.286;2023-09-07T14:55:42;8.55;;;5.22;;
31730;SDS011;18310;55.586;12.286;2023-09-07T14:58:45;7.38;;;5.63;;
31730;SDS011;18310;55.586;12.286;2023-09-07T15:01:48;9.00;;;5.70;;
31730;SDS011;18310;55.586;12.286;2023-09-07T15:05:06;10.05;;;5.05;;
31730;SDS011;18310;55.586;12.286;2023-09-07T15:08:09;7.32;;;5.10;;
31730;SDS011;18310;55.586;12.286;2023-09-07T15:11:13;8.13;;;5.03;;
31730;SDS011;18310;55.586;12.286;2023-09-07T15:14:16;9.95;;;5.03;;
31730;SDS011;18310;55.586;12.286;2023-09-07T15:17:19;13.18;;;4.75;;
31730;SDS011;18310;55.586;12.286;2023-09-07T15:20:24;9.95;;;5.40;;
31730;SDS011;18310;55.586;12.286;2023-09-07T15:23:27;8.63;;;5.53;;
31730;SDS011;18310;55.586;12.286;2023-09-07T15:26:39;7.20;;;4.63;;
31730;SDS011;18310;55.586;12.286;2023-09-07T15:29:43;7.10;;;4.35;;
31730;SDS011;18310;55.586;12.286;2023-09-07T15:32:46;6.70;;;4.60;;
31730;SDS011;18310;55.586;12.286;2023-09-07T15:35:54;9.00;;;4.80;;
31730;SDS011;18310;55.586;12.286;2023-09-07T15:38:57;5.82;;;4.25;;
31730;SDS011;18310;55.586;12.286;2023-09-07T15:42:01;10.70;;;4.78;;
31730;SDS011;18310;55.586;12.286;2023-09-07T15:45:04;7.10;;;4.30;;
31730;SDS011;18310;55.586;12.286;2023-09-07T15:48:08;7.10;;;4.57;;
31730;SDS011;18310;55.586;12.286;2023-09-07T15:51:12;8.80;;;4.38;;
31730;SDS011;18310;55.586;12.286;2023-09-07T15:54:15;8.43;;;4.30;;
31730;SDS011;18310;55.586;12.286;2023-09-07T15:57:18;10.85;;;4.80;;
31730;SDS011;18310;55.586;12.286;2023-09-07T16:00:22;9.20;;;4.87;;
31730;SDS011;18310;55.586;12.286;2023-09-07T16:03:25;9.43;;;4.73;;
31730;SDS011;18310;55.586;12.286;2023-09-07T16:06:29;20.37;;;12.53;;
31730;SDS011;18310;55.586;12.286;2023-09-07T16:09:32;8.82;;;5.78;;
31730;SDS011;18310;55.586;12.286;2023-09-07T16:12:35;7.38;;;4.90;;
31730;SDS011;18310;55.586;12.286;2023-09-07T16:15:38;6.77;;;4.87;;
31730;SDS011;18310;55.586;12.286;2023-09-07T16:18:42;6.63;;;4.68;;
31730;SDS011;18310;55.586;12.286;2023-09-07T16:21:46;7.28;;;4.57;;
31730;SDS011;18310;55.586;12.286;2023-09-07T16:24:50;6.78;;;4.53;;
31730;SDS011;18310;55.586;12.286;2023-09-07T16:27:53;8.90;;;4.57;;
31730;SDS011;18310;55.586;12.286;2023-09-07T16:30:57;8.10;;;4.53;;
31730;SDS011;18310;55.586;12.286;2023-09-07T16:34:00;9.00;;;4.97;;
31730;SDS011;18310;55.586;12.286;2023-09-07T16:37:07;12.40;;;5.00;;
31730;SDS011;18310;55.586;12.286;2023-09-07T16:40:10;7.13;;;4.75;;
31730;SDS011;18310;55.586;12.286;2023-09-07T16:43:13;8.32;;;4.72;;
31730;SDS011;18310;55.586;12.286;2023-09-07T16:46:16;8.07;;;5.10;;
31730;SDS011;18310;55.586;12.286;2023-09-07T16:49:19;8.05;;;5.07;;
31730;SDS011;18310;55.586;12.286;2023-09-07T16:52:24;10.20;;;4.97;;
31730;SDS011;18310;55.586;12.286;2023-09-07T16:55:29;7.05;;;4.82;;
31730;SDS011;18310;55.586;12.286;2023-09-07T16:58:32;9.30;;;4.78;;
31730;SDS011;18310;55.586;12.286;2023-09-07T17:01:56;8.90;;;4.43;;
31730;SDS011;18310;55.586;12.286;2023-09-07T17:04:59;8.50;;;4.70;;
31730;SDS011;18310;55.586;12.286;2023-09-07T17:08:04;8.10;;;4.50;;
31730;SDS011;18310;55.586;12.286;2023-09-07T17:11:08;9.13;;;4.88;;
31730;SDS011;18310;55.586;12.286;2023-09-07T17:14:11;9.65;;;5.63;;
31730;SDS011;18310;55.586;12.286;2023-09-07T17:17:14;9.98;;;5.53;;
31730;SDS011;18310;55.586;12.286;2023-09-07T17:20:17;8.67;;;5.00;;
31730;SDS011;18310;55.586;12.286;2023-09-07T17:23:22;7.87;;;5.37;;
31730;SDS011;18310;55.586;12.286;2023-09-07T17:26:25;8.05;;;5.10;;
31730;SDS011;18310;55.586;12.286;2023-09-07T17:29:28;8.48;;;5.50;;
31730;SDS011;18310;55.586;12.286;2023-09-07T17:32:31;8.27;;;5.40;;
31730;SDS011;18310;55.586;12.286;2023-09-07T17:35:35;7.77;;;5.30;;
31730;SDS011;18310;55.586;12.286;2023-09-07T17:38:39;8.15;;;5.40;;
31730;SDS011;18310;55.586;12.286;2023-09-07T17:41:43;11.35;;;5.70;;
31730;SDS011;18310;55.586;12.286;2023-09-07T17:44:46;11.65;;;5.93;;
31730;SDS011;18310;55.586;12.286;2023-09-07T17:48:12;8.70;;;5.70;;
31730;SDS011;18310;55.586;12.286;2023-09-07T17:51:15;9.75;;;5.95;;
31730;SDS011;18310;55.586;12.286;2023-09-07T17:54:18;8.87;;;5.77;;
31730;SDS011;18310;55.586;12.286;2023-09-07T17:57:22;7.78;;;5.60;;
31730;SDS011;18310;55.586;12.286;2023-09-07T18:00:25;11.15;;;6.15;;
31730;SDS011;18310;55.586;12.286;2023-09-07T18:03:29;15.45;;;6.35;;
31730;SDS011;18310;55.586;12.286;2023-09-07T18:06:33;10.77;;;6.55;;
31730;SDS011;18310;55.586;12.286;2023-09-07T18:09:36;12.93;;;5.77;;
31730;SDS011;18310;55.586;12.286;2023-09-07T18:12:39;8.93;;;5.80;;
31730;SDS011;18310;55.586;12.286;2023-09-07T18:15:44;9.63;;;6.43;;
31730;SDS011;18310;55.586;12.286;2023-09-07T18:18:49;14.88;;;6.10;;
31730;SDS011;18310;55.586;12.286;2023-09-07T18:21:52;14.23;;;7.25;;
31730;SDS011;18310;55.586;12.286;2023-09-07T18:24:55;11.17;;;6.70;;
31730;SDS011;18310;55.586;12.286;2023-09-07T18:27:59;9.23;;;6.78;;
31730;SDS011;18310;55.586;12.286;2023-09-07T18:31:06;10.35;;;7.40;;
31730;SDS011;18310;55.586;12.286;2023-09-07T18:34:11;11.50;;;7.03;;
31730;SDS011;18310;55.586;12.286;2023-09-07T18:37:15;12.18;;;7.00;;
31730;SDS011;18310;55.586;12.286;2023-09-07T18:40:18;11.07;;;7.10;;
31730;SDS011;18310;55.586;12.286;2023-09-07T18:43:21;11.52;;;7.32;;